Time;durP1;ratioP1;P1;durP2;ratioP2;P2;SDS_P1;SDS_P2;PMS_P1;PMS_P2;Temp;Humidity;BMP_temperature;BMP_pressure;BME280_temperature;BME280_humidity;BME280_pressure;Samples;Min_cycle;Max_cycle;Signal;HPM_P1;HPM_P2
2021/10/13 00:02:12;;;;;;;;;11.50;10.25;;;;;15.87;52.43;101913.91;5101117;27;45334;-60
2021/10/13 00:04:38;;;;;;;;;13.50;12.25;;;;;15.85;52.63;101910.41;5101084;27;45563;-60
2021/10/13 00:07:03;;;;;;;;;12.75;12.75;;;;;15.82;52.14;101915.72;5101006;27;45417;-60
2021/10/13 00:09:28;;;;;;;;;11.75;10.50;;;;;15.79;52.67;101921.06;5100763;27;47023;-60
2021/10/13 00:11:54;;;;;;;;;15.00;12.00;;;;;15.77;52.15;101913.16;5100771;27;45524;-60
2021/10/13 00:14:20;;;;;;;;;11.75;9.00;;;;;15.74;52.34;101914.97;5101118;27;45249;-60
2021/10/13 00:16:52;;;;;;;;;13.50;12.25;;;;;15.72;52.31;101911.47;5100922;27;45369;-60
2021/10/13 00:19:21;;;;;;;;;11.50;10.50;;;;;15.69;52.70;101914.19;5100655;27;46152;-60
2021/10/13 00:21:46;;;;;;;;;10.75;10.50;;;;;15.65;52.71;101915.13;5100741;27;45328;-60
2021/10/13 00:24:12;;;;;;;;;12.00;11.50;;;;;15.62;52.46;101908.09;5100636;27;45303;-60
2021/10/13 00:26:38;;;;;;;;;12.50;12.25;;;;;15.56;52.67;101901.13;5101085;27;45220;-60
2021/10/13 00:29:03;;;;;;;;;15.50;13.25;;;;;15.53;52.37;101901.16;5100603;27;45312;-60
2021/10/13 00:31:29;;;;;;;;;16.75;15.25;;;;;15.51;52.26;101918.88;5082290;27;45242;-60
2021/10/13 00:33:54;;;;;;;;;15.25;11.50;;;;;15.47;52.51;101916.28;5100863;27;45307;-60
2021/10/13 00:36:19;;;;;;;;;10.00;10.00;;;;;15.44;52.46;101922.53;5082253;27;45504;-60
2021/10/13 00:38:45;;;;;;;;;12.00;12.00;;;;;15.38;52.61;101930.56;5100305;27;45992;-60
2021/10/13 00:41:10;;;;;;;;;13.50;13.00;;;;;15.37;52.55;101934.09;5100467;27;45302;-60
2021/10/13 00:43:35;;;;;;;;;13.25;11.75;;;;;15.35;52.93;101936.78;5100620;27;45216;-60
2021/10/13 00:46:01;;;;;;;;;15.50;13.00;;;;;15.32;53.07;101939.50;5100445;27;45472;-60
2021/10/13 00:48:26;;;;;;;;;15.50;13.25;;;;;15.31;52.69;101944.78;5100630;27;45320;-60
2021/10/13 00:50:52;;;;;;;;;12.00;11.25;;;;;15.25;52.79;101948.41;5100286;27;45275;-60
2021/10/13 00:53:18;;;;;;;;;13.00;12.00;;;;;15.28;52.72;101951.00;5085187;27;45394;-60
2021/10/13 00:55:43;;;;;;;;;13.50;11.00;;;;;15.26;53.20;101948.38;5103872;27;45301;-60
2021/10/13 00:58:08;;;;;;;;;13.00;13.00;;;;;15.26;52.90;101955.47;5103644;27;45383;-60
2021/10/13 01:00:38;;;;;;;;;13.00;12.25;;;;;15.26;52.94;101945.72;5103796;27;45313;-60
2021/10/13 01:03:37;;;;;;;;;17.50;14.00;;;;;15.24;52.93;101957.25;5104300;27;45234;-60
2021/10/13 01:06:23;;;;;;;;;14.00;13.25;;;;;15.21;52.99;101955.53;5103899;27;45343;-60
2021/10/13 01:09:17;;;;;;;;;16.75;16.00;;;;;15.22;53.25;101959.03;5103440;27;46556;-60
2021/10/13 01:12:17;;;;;;;;;16.75;14.75;;;;;15.19;53.39;101959.94;5103632;27;45480;-60
2021/10/13 01:15:16;;;;;;;;;19.00;15.00;;;;;15.17;53.15;101960.88;5103774;27;45373;-60
2021/10/13 01:17:57;;;;;;;;;15.50;14.00;;;;;15.13;53.62;101965.31;5103605;27;45465;-60
2021/10/13 01:20:43;;;;;;;;;13.00;12.50;;;;;15.11;53.29;101959.19;5103429;27;46537;-60
2021/10/13 01:23:37;;;;;;;;;17.25;15.50;;;;;15.09;52.93;101964.53;5103194;27;45234;-60
2021/10/13 01:26:21;;;;;;;;;15.00;15.00;;;;;15.06;53.16;101969.84;5103662;27;45288;-60
2021/10/13 01:28:49;;;;;;;;;13.75;13.50;;;;;15.03;53.38;101963.72;5103524;27;45315;-60
2021/10/13 01:31:22;;;;;;;;;11.50;10.00;;;;;15.00;53.35;101963.75;5103449;27;46281;-60
2021/10/13 01:33:57;;;;;;;;;13.25;11.75;;;;;14.95;53.39;101958.53;5103479;27;45243;-60
2021/10/13 01:36:27;;;;;;;;;11.25;10.50;;;;;14.94;52.99;101973.53;5103504;27;45507;-60
2021/10/13 01:38:54;;;;;;;;;16.00;12.00;;;;;14.90;53.33;101958.56;5103233;27;45355;-60
2021/10/13 01:41:21;;;;;;;;;5.75;5.50;;;;;14.87;52.99;101965.69;5103122;27;47040;-60
2021/10/13 01:43:50;;;;;;;;;11.50;9.25;;;;;14.80;53.02;101959.59;5064438;28;45363;-60
2021/10/13 01:46:19;;;;;;;;;11.25;11.25;;;;;14.79;53.59;101964.03;5103202;27;45126;-60
2021/10/13 01:48:45;;;;;;;;;10.00;9.25;;;;;14.77;53.56;101972.88;5102964;27;45469;-60
2021/10/13 01:51:13;;;;;;;;;10.75;10.50;;;;;14.72;53.09;101966.75;5103116;27;46181;-60
2021/10/13 01:53:41;;;;;;;;;10.00;7.00;;;;;14.69;53.21;101969.44;5102882;27;45224;-60
2021/10/13 01:56:08;;;;;;;;;10.00;10.00;;;;;14.65;53.18;101975.66;5103225;27;45221;-60
2021/10/13 01:58:36;;;;;;;;;13.75;11.00;;;;;14.60;53.17;101973.91;5102759;27;45383;-60
2021/10/13 02:01:02;;;;;;;;;8.50;8.00;;;;;14.58;52.92;101972.19;5102995;27;45430;-60
2021/10/13 02:03:31;;;;;;;;;10.00;10.00;;;;;14.53;53.31;101966.94;5102954;27;45201;-60
2021/10/13 02:06:00;;;;;;;;;12.00;8.00;;;;;14.50;53.34;101963.44;5103232;27;45277;-60
2021/10/13 02:08:28;;;;;;;;;9.50;7.50;;;;;14.46;52.99;101957.31;5102594;27;45553;-60
2021/10/13 02:10:55;;;;;;;;;10.75;8.75;;;;;14.39;53.13;101960.91;5102956;27;45374;-60
2021/10/13 02:13:22;;;;;;;;;10.50;8.00;;;;;14.38;52.90;101964.47;5102573;27;45433;-60
2021/10/13 02:15:50;;;;;;;;;8.50;8.50;;;;;14.33;53.07;101968.94;5084911;27;45366;-60
2021/10/13 02:18:25;;;;;;;;;7.75;7.00;;;;;14.30;53.09;101972.44;5102713;27;45255;-60
2021/10/13 02:20:51;;;;;;;;;8.75;7.00;;;;;14.27;53.40;101983.06;5102561;27;45326;-60
2021/10/13 02:23:20;;;;;;;;;8.00;8.00;;;;;14.24;53.29;101983.97;5083926;27;45318;-60
2021/10/13 02:25:49;;;;;;;;;9.75;8.75;;;;;14.19;53.49;101982.25;5102796;27;45306;-60
2021/10/13 02:28:24;;;;;;;;;8.25;8.25;;;;;14.17;53.36;101978.78;5102369;27;45234;-60
2021/10/13 02:30:50;;;;;;;;;9.00;8.50;;;;;14.14;52.98;101979.69;5102480;27;46377;-60
2021/10/13 02:33:15;;;;;;;;;9.75;8.25;;;;;14.10;53.55;101985.88;5102306;27;45442;-60
2021/10/13 02:35:41;;;;;;;;;16.25;15.25;;;;;14.06;53.38;101990.31;5102629;27;45494;-60
2021/10/13 02:38:06;;;;;;;;;7.25;7.25;;;;;14.03;53.30;101994.75;5102394;27;45426;-60
2021/10/13 02:40:31;;;;;;;;;8.75;8.75;;;;;13.99;53.11;101991.25;5102362;27;45295;-60
2021/10/13 02:42:57;;;;;;;;;10.00;8.00;;;;;13.95;53.09;101998.34;5102310;27;45260;-60
2021/10/13 02:45:22;;;;;;;;;8.25;8.25;;;;;13.91;53.08;101990.44;5102465;27;45205;-60
2021/10/13 02:47:55;;;;;;;;;8.00;7.75;;;;;13.90;53.03;101999.25;5084001;27;45863;-60
2021/10/13 02:50:29;;;;;;;;;10.25;7.00;;;;;13.87;53.57;102004.56;5101972;27;46359;-60
2021/10/13 02:53:16;;;;;;;;;9.00;8.75;;;;;13.83;53.37;102003.72;5102019;27;45418;-60
2021/10/13 02:55:54;;;;;;;;;9.00;6.00;;;;;13.79;53.66;102004.63;5102179;27;45464;-60
2021/10/13 02:58:40;;;;;;;;;7.50;7.25;;;;;13.75;53.62;102003.78;5101825;27;45231;-60
2021/10/13 03:01:09;;;;;;;;;10.25;8.00;;;;;13.71;53.50;102009.97;5101984;27;46228;-60
2021/10/13 03:03:41;;;;;;;;;12.00;9.00;;;;;13.68;53.20;102007.34;5101764;27;45358;-60
2021/10/13 03:06:10;;;;;;;;;11.00;8.75;;;;;13.63;52.98;102011.78;5102357;27;45425;-60
2021/10/13 03:08:38;;;;;;;;;9.25;8.00;;;;;13.61;53.41;102019.72;5101566;27;45497;-60
2021/10/13 03:11:05;;;;;;;;;9.25;8.25;;;;;13.60;53.15;102023.25;5101772;27;45328;-60
2021/10/13 03:13:33;;;;;;;;;10.50;10.25;;;;;13.56;53.55;102018.88;5101558;27;45374;-60
2021/10/13 03:16:01;;;;;;;;;8.75;6.25;;;;;13.50;53.46;102018.91;5101429;27;45401;-59
2021/10/13 03:18:28;;;;;;;;;8.00;7.50;;;;;13.49;53.41;102022.44;5083660;27;46087;-59
2021/10/13 03:20:54;;;;;;;;;11.75;10.75;;;;;13.45;53.29;102018.94;5083372;27;47078;-59
2021/10/13 03:23:21;;;;;;;;;12.00;12.00;;;;;13.44;53.47;102016.31;5101381;27;45344;-59
2021/10/13 03:25:51;;;;;;;;;9.50;9.25;;;;;13.41;53.59;102016.31;5101788;27;45152;-59
2021/10/13 03:28:16;;;;;;;;;15.00;9.00;;;;;13.39;53.35;102018.09;5063422;28;45348;-59
2021/10/13 03:30:44;;;;;;;;;9.25;8.50;;;;;13.36;53.33;102023.34;5086285;27;47193;-59
2021/10/13 03:33:10;;;;;;;;;10.50;10.50;;;;;13.32;53.39;102023.38;5101552;27;45267;-59
2021/10/13 03:35:35;;;;;;;;;10.75;8.75;;;;;13.29;53.32;102030.44;5101613;27;45313;-59
2021/10/13 03:38:03;;;;;;;;;10.00;9.50;;;;;13.27;53.28;102041.00;5101307;27;45174;-59
2021/10/13 03:40:31;;;;;;;;;13.75;11.75;;;;;13.24;53.22;102037.50;5101515;27;45422;-59
2021/10/13 03:42:57;;;;;;;;;12.25;9.50;;;;;13.22;53.53;102039.25;5101437;27;45341;-59
2021/10/13 03:45:23;;;;;;;;;11.75;10.00;;;;;13.20;53.47;102033.13;5101301;27;45228;-59
2021/10/13 03:47:49;;;;;;;;;9.50;8.50;;;;;13.15;53.58;102031.38;5101498;27;45236;-59
2021/10/13 03:50:19;;;;;;;;;9.25;8.25;;;;;13.13;53.34;102037.53;5100893;27;46091;-59
2021/10/13 03:52:45;;;;;;;;;11.75;9.50;;;;;13.10;53.60;102032.28;5101465;27;45504;-59
2021/10/13 03:55:13;;;;;;;;;10.00;10.00;;;;;13.07;53.49;102033.19;5101164;27;45347;-59
2021/10/13 03:57:39;;;;;;;;;10.00;8.00;;;;;13.01;53.62;102020.00;5099886;27;45301;-59
2021/10/13 04:00:07;;;;;;;;;8.75;7.75;;;;;13.02;53.46;102032.31;5100970;27;46402;-59
2021/10/13 04:02:32;;;;;;;;;10.00;8.00;;;;;12.99;53.48;102030.56;5101162;27;45343;-59
2021/10/13 04:04:58;;;;;;;;;7.50;6.00;;;;;12.97;53.58;102042.00;5101106;27;45364;-59
2021/10/13 04:07:24;;;;;;;;;7.75;7.75;;;;;12.94;53.39;102045.53;5101048;27;45399;-59
2021/10/13 04:09:49;;;;;;;;;9.00;5.00;;;;;12.88;53.84;102042.94;5101022;27;45245;-59
2021/10/13 04:12:15;;;;;;;;;9.25;9.25;;;;;12.89;53.63;102049.94;5082755;27;45341;-59
2021/10/13 04:14:41;;;;;;;;;12.50;10.00;;;;;12.86;53.38;102057.88;5101088;27;45359;-59
2021/10/13 04:17:06;;;;;;;;;10.75;8.00;;;;;12.83;53.64;102056.13;5101224;27;45283;-60
2021/10/13 04:19:32;;;;;;;;;10.50;6.75;;;;;12.82;53.64;102062.25;5100676;27;46266;-59
2021/10/13 04:21:57;;;;;;;;;12.50;12.25;;;;;12.82;53.68;102066.69;5100770;27;45195;-59
2021/10/13 04:24:22;;;;;;;;;8.25;7.75;;;;;12.78;53.62;102067.53;5100965;27;45438;-59
2021/10/13 04:26:48;;;;;;;;;6.75;6.75;;;;;12.77;53.50;102071.09;5099884;27;45166;-59
2021/10/13 04:29:13;;;;;;;;;8.25;8.25;;;;;12.75;53.57;102067.56;5100737;27;45309;-59
2021/10/13 04:31:38;;;;;;;;;7.00;6.50;;;;;12.73;53.90;102071.94;5100910;27;45270;-59
2021/10/13 04:34:04;;;;;;;;;7.00;6.00;;;;;12.70;53.41;102074.63;5100968;27;45387;-59
2021/10/13 04:36:29;;;;;;;;;11.50;9.00;;;;;12.68;53.55;102077.25;5100713;27;45561;-58
2021/10/13 04:38:54;;;;;;;;;10.00;8.25;;;;;12.67;53.74;102079.00;5100446;27;46267;-60
2021/10/13 04:41:20;;;;;;;;;9.00;8.00;;;;;12.66;53.70;102085.16;5100678;27;45226;-60
2021/10/13 04:43:45;;;;;;;;;8.00;7.00;;;;;12.64;53.81;102088.66;5100688;27;45246;-60
2021/10/13 04:46:10;;;;;;;;;7.00;6.75;;;;;12.61;53.49;102092.19;5100637;27;45234;-60
2021/10/13 04:48:36;;;;;;;;;7.00;7.00;;;;;12.61;53.69;102096.59;5100498;27;45481;-60
2021/10/13 04:51:01;;;;;;;;;8.00;8.00;;;;;12.58;53.66;102093.94;5100532;27;45211;-60
2021/10/13 04:53:27;;;;;;;;;9.25;7.75;;;;;12.58;53.62;102100.13;5100481;27;45316;-60
2021/10/13 04:55:52;;;;;;;;;9.00;7.00;;;;;12.56;53.81;102104.50;5082107;27;45331;-60
2021/10/13 04:58:18;;;;;;;;;8.25;7.00;;;;;12.55;53.86;102099.25;5100058;27;45516;-60
2021/10/13 05:00:43;;;;;;;;;7.75;7.00;;;;;12.51;53.82;102101.00;5100380;27;45405;-60
2021/10/13 05:03:08;;;;;;;;;10.00;8.25;;;;;12.49;53.85;102097.47;5100508;27;45311;-60
2021/10/13 05:05:35;;;;;;;;;11.00;9.75;;;;;12.49;53.83;102102.75;5100240;27;45312;-60
2021/10/13 05:08:01;;;;;;;;;10.25;8.25;;;;;12.47;53.90;102102.75;5100062;27;45321;-60
2021/10/13 05:10:26;;;;;;;;;7.75;7.00;;;;;12.43;53.88;102097.50;5081763;27;45404;-60
2021/10/13 05:12:51;;;;;;;;;14.00;10.00;;;;;12.43;53.80;102101.00;5100328;27;45285;-60
2021/10/13 05:15:17;;;;;;;;;12.00;10.00;;;;;12.42;53.74;102103.66;5081884;27;45343;-60
2021/10/13 05:17:42;;;;;;;;;10.25;7.75;;;;;12.42;53.81;102106.28;5100083;27;46016;-60
2021/10/13 05:20:08;;;;;;;;;9.00;8.50;;;;;12.40;53.89;102114.19;5087875;27;45242;-60
2021/10/13 05:22:33;;;;;;;;;8.75;7.50;;;;;12.40;53.82;102122.09;5087098;27;45539;-60
2021/10/13 05:24:59;;;;;;;;;12.00;11.50;;;;;12.37;53.88;102118.59;5089428;27;45343;-60
2021/10/13 05:27:24;;;;;;;;;8.75;8.25;;;;;12.36;53.93;102117.69;5066651;28;48316;-59
2021/10/13 05:29:49;;;;;;;;;49.25;42.00;;;;;12.35;54.01;102131.75;5066171;27;45234;-60
2021/10/13 05:32:15;;;;;;;;;14.00;11.75;;;;;12.32;53.97;102122.09;5089498;27;45128;-59
2021/10/13 05:34:40;;;;;;;;;11.00;11.00;;;;;12.31;53.80;102130.00;5082403;27;45212;-62
2021/10/13 05:37:06;;;;;;;;;21.75;19.00;;;;;12.28;53.87;102132.66;5062092;28;48095;-57
2021/10/13 05:39:31;;;;;;;;;19.25;19.25;;;;;12.29;53.96;102145.81;5077103;27;45355;-60
2021/10/13 05:41:57;;;;;;;;;18.50;15.75;;;;;12.27;54.10;102142.28;5084220;27;45393;-59
2021/10/13 05:44:22;;;;;;;;;20.25;18.25;;;;;12.26;53.90;102150.19;5098999;27;45411;-54
2021/10/13 05:46:48;;;;;;;;;15.25;12.00;;;;;12.24;54.10;102144.94;5099241;27;46172;-60
2021/10/13 05:49:13;;;;;;;;;15.75;13.00;;;;;12.22;53.97;102144.03;5094463;27;45244;-61
2021/10/13 05:51:39;;;;;;;;;14.75;12.00;;;;;12.21;54.09;102141.41;5090503;27;46458;-60
2021/10/13 05:54:04;;;;;;;;;14.25;14.00;;;;;12.19;54.15;102141.41;5083247;27;45340;-60
2021/10/13 05:56:29;;;;;;;;;13.75;12.75;;;;;12.16;54.07;102138.75;5094146;27;45266;-60
2021/10/13 05:58:55;;;;;;;;;17.25;15.50;;;;;12.15;54.08;102142.28;5083297;27;45410;-60
2021/10/13 06:01:21;;;;;;;;;12.50;12.25;;;;;12.14;54.09;102148.44;5084546;27;45370;-60
2021/10/13 06:03:47;;;;;;;;;13.50;10.50;;;;;12.13;54.12;102152.81;5072167;27;45276;-60
2021/10/13 06:06:15;;;;;;;;;19.50;13.25;;;;;12.11;54.06;102148.41;5089721;27;46465;-60
2021/10/13 06:08:44;;;;;;;;;12.50;10.25;;;;;12.08;54.08;102143.16;5083215;27;45216;-60
2021/10/13 06:11:10;;;;;;;;;14.25;12.00;;;;;12.06;54.10;102152.81;5065907;27;45320;-60
2021/10/13 06:13:35;;;;;;;;;14.50;14.00;;;;;12.06;54.06;102152.81;5083041;27;45306;-60
2021/10/13 06:16:01;;;;;;;;;18.25;14.00;;;;;12.03;54.32;102148.41;5084048;27;46301;-60
2021/10/13 06:18:26;;;;;;;;;13.75;12.75;;;;;12.02;54.14;102154.53;5083255;27;45265;-60
2021/10/13 06:20:52;;;;;;;;;14.50;14.00;;;;;12.02;54.25;102158.06;5084232;27;45398;-60
2021/10/13 06:23:17;;;;;;;;;15.00;14.25;;;;;12.01;54.24;102164.22;5099084;27;45244;-60
2021/10/13 06:25:43;;;;;;;;;12.75;11.75;;;;;12.00;54.09;102164.22;5100909;27;45330;-60
2021/10/13 06:28:08;;;;;;;;;16.50;12.50;;;;;11.98;54.28;102168.59;5096975;27;45279;-60
2021/10/13 06:30:37;;;;;;;;;11.50;11.50;;;;;11.97;54.39;102172.97;5093103;27;45525;-59
2021/10/13 06:33:03;;;;;;;;;18.00;16.00;;;;;11.96;54.27;102176.50;5085053;27;46347;-59
2021/10/13 06:35:28;;;;;;;;;16.50;14.25;;;;;11.96;54.20;102175.59;5082835;27;45307;-58
2021/10/13 06:37:54;;;;;;;;;16.25;12.25;;;;;11.96;54.25;102183.50;5081388;27;45449;-58
2021/10/13 06:40:19;;;;;;;;;14.50;14.50;;;;;11.94;54.38;102177.34;5090784;27;45271;-52
2021/10/13 06:42:44;;;;;;;;;17.50;13.00;;;;;11.96;54.19;102181.78;5082490;27;45615;-52
2021/10/13 06:45:10;;;;;;;;;15.25;11.75;;;;;11.98;54.45;102187.03;5081714;27;45376;-53
2021/10/13 06:47:36;;;;;;;;;14.00;14.00;;;;;11.98;54.33;102187.91;5083927;27;45288;-53
2021/10/13 06:50:02;;;;;;;;;17.75;14.25;;;;;12.00;54.36;102187.94;5082036;27;45318;-53
2021/10/13 06:52:27;;;;;;;;;16.25;15.25;;;;;12.01;54.25;102189.66;5083199;27;45422;-54
2021/10/13 06:54:53;;;;;;;;;19.00;16.25;;;;;12.01;54.39;102185.28;5082589;27;46108;-54
2021/10/13 06:57:18;;;;;;;;;15.25;15.25;;;;;12.05;54.49;102187.94;5092622;27;45442;-55
2021/10/13 06:59:43;;;;;;;;;19.50;17.50;;;;;12.05;54.51;102183.56;5082569;27;45216;-55
2021/10/13 07:02:09;;;;;;;;;18.25;16.50;;;;;12.05;54.52;102186.19;5099005;27;45236;-55
2021/10/13 07:04:34;;;;;;;;;20.00;16.25;;;;;12.10;54.47;102194.09;5101921;27;45909;-54
2021/10/13 07:07:00;;;;;;;;;17.00;17.00;;;;;12.12;54.55;102192.34;5101464;27;45296;-54
2021/10/13 07:09:25;;;;;;;;;19.75;15.75;;;;;12.13;54.53;102199.38;5077432;28;45603;-53
2021/10/13 07:11:50;;;;;;;;;18.00;15.50;;;;;12.13;54.76;102210.78;5101115;27;45245;-53
2021/10/13 07:14:17;;;;;;;;;16.00;14.75;;;;;12.16;54.73;102209.91;5101802;27;45403;-57
2021/10/13 07:16:43;;;;;;;;;22.00;17.00;;;;;12.16;54.71;102216.09;5101614;27;45393;-54
2021/10/13 07:19:08;;;;;;;;;27.00;17.50;;;;;12.15;54.59;102213.41;5101720;27;45504;-53
2021/10/13 07:21:34;;;;;;;;;31.50;27.00;;;;;12.21;54.49;102217.84;5101374;27;45678;-52
2021/10/13 07:23:59;;;;;;;;;28.00;26.50;;;;;12.22;54.68;102216.97;5092614;27;46194;-49
2021/10/13 07:26:24;;;;;;;;;25.50;24.25;;;;;12.25;54.77;102219.59;5088011;27;45496;-52
2021/10/13 07:28:50;;;;;;;;;26.75;23.25;;;;;12.26;54.67;102219.59;5082319;27;45728;-52
2021/10/13 07:31:15;;;;;;;;;21.00;19.75;;;;;12.27;54.78;102218.72;5077578;27;45449;-53
2021/10/13 07:33:40;;;;;;;;;22.00;21.50;;;;;12.29;54.71;102230.16;5096507;27;45433;-53
2021/10/13 07:36:06;;;;;;;;;27.50;22.00;;;;;12.31;54.73;102231.06;5082988;27;45823;-52
2021/10/13 07:38:31;;;;;;;;;23.75;21.25;;;;;12.34;54.83;102236.31;5101514;27;45462;-54
2021/10/13 07:40:57;;;;;;;;;25.00;20.75;;;;;12.36;54.80;102241.59;5101496;27;45449;-52
2021/10/13 07:43:23;;;;;;;;;22.00;22.00;;;;;12.38;54.57;102234.56;5082813;27;46659;-52
2021/10/13 07:45:49;;;;;;;;;19.25;17.75;;;;;12.41;54.68;102233.69;5101224;27;45307;-55
2021/10/13 07:48:14;;;;;;;;;18.75;16.25;;;;;12.45;54.88;102238.09;5101501;27;45238;-54
2021/10/13 07:50:40;;;;;;;;;18.00;17.50;;;;;12.47;54.96;102231.06;5101292;27;45266;-54
2021/10/13 07:53:05;;;;;;;;;14.00;13.50;;;;;12.51;54.87;102240.75;5100999;27;45255;-51
2021/10/13 07:55:32;;;;;;;;;19.25;16.50;;;;;12.54;54.88;102234.59;5101058;27;45278;-54
2021/10/13 07:57:57;;;;;;;;;29.50;26.50;;;;;12.57;55.08;102235.47;5082814;27;45250;-54
2021/10/13 08:00:22;;;;;;;;;21.25;16.00;;;;;12.54;55.14;102222.31;5100622;27;45405;-55
2021/10/13 08:02:48;;;;;;;;;16.50;14.00;;;;;12.67;54.58;102239.00;5082764;27;48342;-55
2021/10/13 08:05:16;;;;;;;;;19.00;15.00;;;;;12.70;54.88;102249.56;5100819;27;45345;-56
2021/10/13 08:07:42;;;;;;;;;17.75;15.50;;;;;12.74;54.75;102246.06;5100961;27;45354;-55
2021/10/13 08:10:07;;;;;;;;;20.00;15.25;;;;;12.79;54.95;102248.69;5100828;27;45620;-55
2021/10/13 08:12:33;;;;;;;;;15.00;13.00;;;;;12.84;54.97;102241.66;5100798;27;45248;-55
2021/10/13 08:14:59;;;;;;;;;16.25;14.75;;;;;12.90;55.00;102244.28;5100784;27;45425;-55
2021/10/13 08:17:24;;;;;;;;;17.50;17.25;;;;;12.97;55.03;102242.56;5101006;27;45295;-55
2021/10/13 08:19:50;;;;;;;;;12.50;10.00;;;;;13.01;54.69;102246.94;5100604;27;45291;-55
2021/10/13 08:22:16;;;;;;;;;10.25;10.25;;;;;13.08;54.91;102248.69;5100495;27;45777;-53
2021/10/13 08:24:42;;;;;;;;;12.00;10.00;;;;;13.15;54.76;102246.94;5100613;27;45365;-55
2021/10/13 08:27:07;;;;;;;;;16.00;14.75;;;;;13.21;54.63;102244.28;5100866;27;45598;-56
2021/10/13 08:29:32;;;;;;;;;13.00;10.25;;;;;13.28;54.96;102247.78;5100527;27;45597;-53
2021/10/13 08:31:58;;;;;;;;;13.50;12.25;;;;;13.31;54.72;102232.81;5100915;27;46523;-55
2021/10/13 08:34:23;;;;;;;;;16.00;12.50;;;;;13.44;54.53;102232.84;5100302;27;45271;-55
2021/10/13 08:36:48;;;;;;;;;15.00;12.50;;;;;13.52;54.92;102241.63;5100555;27;45352;-55
2021/10/13 08:39:14;;;;;;;;;14.50;13.50;;;;;13.60;54.56;102245.09;5100556;27;45504;-53
2021/10/13 08:41:39;;;;;;;;;14.00;11.75;;;;;13.66;54.81;102238.94;5100451;27;46077;-52
2021/10/13 08:44:05;;;;;;;;;14.75;13.50;;;;;13.74;54.68;102245.06;5100097;27;45248;-55
2021/10/13 08:46:30;;;;;;;;;14.75;11.25;;;;;13.86;54.96;102248.53;5100530;27;45469;-55
2021/10/13 08:48:56;;;;;;;;;14.75;11.50;;;;;13.93;54.76;102259.09;5100249;27;45375;-54
2021/10/13 08:51:21;;;;;;;;;14.50;13.00;;;;;14.03;54.22;102251.13;5100482;27;46398;-54
2021/10/13 08:53:46;;;;;;;;;12.00;9.00;;;;;14.13;54.71;102258.13;5099964;27;45291;-54
2021/10/13 08:56:12;;;;;;;;;9.00;9.00;;;;;14.22;54.28;102255.41;5082294;27;45362;-55
2021/10/13 08:58:40;;;;;;;;;13.50;10.50;;;;;14.33;54.50;102262.44;5099986;27;45245;-55
2021/10/13 09:01:08;;;;;;;;;11.75;11.75;;;;;14.42;54.23;102262.38;5099952;27;46889;-54
2021/10/13 09:03:38;;;;;;;;;10.50;10.50;;;;;14.53;54.55;102254.38;5081563;27;45773;-55
2021/10/13 09:06:18;;;;;;;;;16.50;15.25;;;;;14.62;54.02;102263.13;5100296;27;45452;-55
2021/10/13 09:09:07;;;;;;;;;15.75;13.25;;;;;14.74;54.28;102264.84;5099800;27;45338;-54
2021/10/13 09:11:37;;;;;;;;;17.00;14.75;;;;;14.84;54.36;102259.47;5099941;27;45334;-55
2021/10/13 09:14:07;;;;;;;;;14.00;10.75;;;;;14.95;53.82;102262.91;5102708;27;45461;-55
2021/10/13 09:17:11;;;;;;;;;10.75;9.00;;;;;15.06;54.02;102268.13;5103645;27;45276;-54
2021/10/13 09:19:43;;;;;;;;;11.00;9.00;;;;;15.18;54.07;102265.38;5084136;27;45461;-55
2021/10/13 09:22:10;;;;;;;;;10.25;9.25;;;;;15.29;53.52;102262.59;5084731;27;48441;-55
2021/10/13 09:24:44;;;;;;;;;11.75;10.25;;;;;15.42;53.81;102266.00;5103391;27;45499;-55
2021/10/13 09:27:26;;;;;;;;;13.00;9.25;;;;;15.54;53.56;102265.88;5085318;27;45323;-56
2021/10/13 09:30:07;;;;;;;;;8.75;7.00;;;;;15.66;53.67;102264.88;5103358;27;45460;-56
2021/10/13 09:32:33;;;;;;;;;14.25;13.00;;;;;15.80;53.49;102261.16;5103225;27;46844;-56
2021/10/13 09:34:59;;;;;;;;;3.00;3.00;;;;;15.91;53.68;102268.16;5103483;27;45283;-53
2021/10/13 09:37:42;;;;;;;;;5.75;5.00;;;;;16.05;53.23;102261.78;5083263;27;45281;-54
2021/10/13 09:40:09;;;;;;;;;9.50;7.50;;;;;16.16;53.07;102264.28;5103453;27;45453;-54
2021/10/13 09:42:38;;;;;;;;;4.00;4.00;;;;;16.29;52.96;102263.25;5102997;27;46234;-55
2021/10/13 09:45:05;;;;;;;;;5.50;4.00;;;;;16.43;52.94;102265.69;5084932;27;45340;-55
2021/10/13 09:47:35;;;;;;;;;6.00;4.00;;;;;16.55;52.68;102268.16;5103202;27;45343;-53
2021/10/13 09:50:08;;;;;;;;;6.25;6.00;;;;;16.71;52.70;102271.44;5084830;27;45213;-55
2021/10/13 09:52:34;;;;;;;;;6.25;4.25;;;;;16.83;52.78;102261.53;5084465;27;46966;-55
2021/10/13 09:55:05;;;;;;;;;6.25;6.25;;;;;16.98;52.56;102269.28;5103097;27;45167;-54
2021/10/13 09:57:33;;;;;;;;;4.50;4.50;;;;;17.13;52.43;102276.13;5102972;27;45268;-55
2021/10/13 10:00:08;;;;;;;;;7.75;5.75;;;;;17.25;52.19;102282.13;5102947;27;45341;-54
2021/10/13 10:02:58;;;;;;;;;5.50;4.75;;;;;17.41;52.33;102280.94;5102914;27;45281;-55
2021/10/13 10:05:35;;;;;;;;;10.50;6.25;;;;;17.54;51.99;102279.78;5077107;27;45432;-55
2021/10/13 10:08:02;;;;;;;;;5.50;5.50;;;;;17.66;51.92;102278.69;5084531;27;45365;-54
2021/10/13 10:10:29;;;;;;;;;5.00;5.00;;;;;17.78;51.84;102269.59;5102892;27;45748;-56
2021/10/13 10:13:08;;;;;;;;;5.00;3.50;;;;;17.91;51.50;102272.88;5102641;27;46284;-54
2021/10/13 10:15:47;;;;;;;;;3.00;3.00;;;;;18.03;51.31;102277.97;5102794;27;45341;-55
2021/10/13 10:18:34;;;;;;;;;3.50;2.25;;;;;18.16;51.51;102273.28;5102674;27;45229;-55
2021/10/13 10:21:18;;;;;;;;;2.00;2.00;;;;;18.28;51.08;102271.25;5102606;27;45233;-55
2021/10/13 10:23:45;;;;;;;;;5.00;3.00;;;;;18.39;50.87;102271.88;5090883;27;46197;-55
2021/10/13 10:26:25;;;;;;;;;7.25;3.00;;;;;18.50;50.90;102279.59;5101679;27;45263;-54
2021/10/13 10:28:51;;;;;;;;;9.00;7.50;;;;;18.58;50.86;102275.00;5084171;27;45445;-55
2021/10/13 10:31:38;;;;;;;;;6.50;5.50;;;;;18.66;50.64;102266.81;5102446;27;45356;-55
2021/10/13 10:34:03;;;;;;;;;6.00;4.00;;;;;18.75;50.66;102279.91;5102242;27;46181;-54
2021/10/13 10:36:34;;;;;;;;;6.25;5.00;;;;;18.84;50.38;102270.81;5102586;27;45328;-55
2021/10/13 10:39:00;;;;;;;;;3.25;3.00;;;;;18.88;50.30;102271.63;5102442;27;45406;-55
2021/10/13 10:41:42;;;;;;;;;6.25;5.00;;;;;18.95;49.87;102262.59;5102346;27;45448;-54
2021/10/13 10:44:26;;;;;;;;;6.00;5.25;;;;;19.05;50.16;102266.78;5102050;27;45367;-55
2021/10/13 10:47:03;;;;;;;;;3.50;3.50;;;;;19.11;50.05;102261.28;5102331;27;45417;-53
2021/10/13 10:49:45;;;;;;;;;5.00;4.00;;;;;19.18;49.86;102264.66;5102595;27;45316;-55
2021/10/13 10:52:12;;;;;;;;;6.75;4.50;;;;;19.21;49.29;102259.25;5101832;27;45434;-55
2021/10/13 10:54:37;;;;;;;;;5.25;5.25;;;;;19.25;49.80;102263.59;5102039;27;45421;-53
2021/10/13 10:57:29;;;;;;;;;3.00;3.00;;;;;19.28;49.51;102257.28;5101835;27;45346;-55
2021/10/13 10:59:55;;;;;;;;;7.25;4.00;;;;;19.33;49.31;102260.72;5083828;27;45251;-54
2021/10/13 11:02:23;;;;;;;;;3.25;3.25;;;;;19.39;49.09;102267.69;5102140;27;45260;-55
2021/10/13 11:05:05;;;;;;;;;6.00;3.50;;;;;19.45;48.78;102265.72;5101996;27;46264;-56
2021/10/13 11:07:34;;;;;;;;;4.25;4.25;;;;;19.52;48.80;102261.09;5101668;27;45197;-55
2021/10/13 11:10:01;;;;;;;;;3.75;3.75;;;;;19.63;48.72;102266.13;5101991;27;45288;-56
2021/10/13 11:12:26;;;;;;;;;3.25;3.25;;;;;19.73;48.62;102264.06;5101905;27;45428;-56
2021/10/13 11:15:11;;;;;;;;;6.00;3.00;;;;;19.88;49.01;102262.78;5101596;27;46101;-55
2021/10/13 11:17:36;;;;;;;;;3.75;3.75;;;;;19.96;48.29;102256.31;5083773;27;45461;-56
2021/10/13 11:20:10;;;;;;;;;3.50;3.00;;;;;20.10;48.88;102263.00;5101722;27;45342;-56
2021/10/13 11:22:36;;;;;;;;;3.25;3.25;;;;;20.23;48.69;102266.19;5101224;27;45490;-54